Peotone Weather

Nearby METAR Reports

 

KIGQ - Lansing, Illinois, USA
Distance from station: NE 19mi, 30km
Updated: Sat, 24-Feb-2018 6:55pm CST
Light drizzle, Overcast
Light drizzle, Overcast
 Wind from SE
Wind: SE 18 mph , 30 km/h, Gust: 26 mph , 43 km/h
Temperature: 45°F , 7°C
Wind Chill: 37°F , 3°C
Dew Point: 45°F , 7°C
Humidity: 100%
Barometer: 29.72 inHg , 1006.4 hPa
Summary: Light Drizzle
Clouds: Overcast
Visibility: 10 miles , 16 km
Cloud details: Overcast 700 ft
2018/02/25 00:55 KIGQ 250055Z AUTO 13016G23KT 10SM -DZ OVC007 07/07 A2972 RMK AO2 T00670067
KIKK - Kankakee, Illinois, USA
Distance from station: S 19mi, 30km
Updated: Sat, 24-Feb-2018 6:55pm CST
Mist, Overcast
Mist, Overcast
 Wind from SE
Wind: SE 23 mph , 37 km/h, Gust: 29 mph , 46 km/h
Temperature: 46°F , 8°C
Wind Chill: 38°F , 3°C
Dew Point: 45°F , 7°C
Humidity: 93%
Barometer: 29.68 inHg , 1005.1 hPa
Summary: Mist
Clouds: Overcast
Visibility: 5 miles , 8 km
Cloud details: Overcast 400 ft
2018/02/25 00:55 KIKK 250055Z AUTO 13020G25KT 5SM BR OVC004 08/07 A2968 RMK AO2 T00750071
 
KSJC - Joliet, Illinois, USA
Distance from station: WNW 24mi, 38km
Updated: Sat, 24-Feb-2018 6:53pm CST
Mostly cloudy
Mostly cloudy
 Wind from W
Wind: W 15 mph , 24 km/h
Temperature: 55°F , 13°C
Dew Point: 37°F , 3°C
Humidity: 51%
Barometer: 30.31 inHg , 1026.4 hPa
Clouds: Mostly cloudy
Visibility: 10 miles , 16 km
Cloud details: Few Clouds 2900 ft
Partly cloudy 5000 ft
Mostly cloudy 16000 ft
2018/02/25 00:53 KSJC 250053Z 26013KT 10SM FEW029 SCT050 BKN160 13/03 A3031 RMK AO2 SLP262 T01280033 $
KLOT - Romeoville, Illinois, USA
Distance from station: NW 26mi, 41km
Updated: Sat, 24-Feb-2018 6:55pm CST
Overcast
Overcast
 Wind from SE
Wind: SE 21 mph , 33 km/h, Gust: 25 mph , 41 km/h
Temperature: 45°F , 7°C
Wind Chill: 37°F , 3°C
Dew Point: 45°F , 7°C
Humidity: 100%
Barometer: 29.67 inHg , 1004.7 hPa
Clouds: Overcast
Visibility: 10 miles , 16 km
Cloud details: Overcast 700 ft
2018/02/25 00:55 KLOT 250055Z AUTO 13018G22KT 10SM OVC007 07/07 A2967 RMK AO2 T00700065
 
KMDW - Midway Airport Chicago, Illinois, USA
Distance from station: N 31mi, 50km
Updated: Sat, 24-Feb-2018 6:53pm CST
Light rain, Overcast
Light rain, Overcast
 Wind from SE
Wind: SE 20 mph , 31 km/h, Gust: 25 mph , 41 km/h
Temperature: 45°F , 7°C
Wind Chill: 37°F , 3°C
Dew Point: 43°F , 6°C
Humidity: 93%
Barometer: 29.70 inHg , 1005.8 hPa
Summary: Light rain
Clouds: Overcast
Visibility: 8 miles , 13 km
Cloud details: Overcast 700 ft
2018/02/25 00:53 KMDW 250053Z 13017G22KT 8SM -RA OVC007 07/06 A2970 RMK AO2 RAB52 SLP065 P0000 T00720061
KC09 - Morris, Illinois, USA
Distance from station: W 34mi, 54km
Updated: Sat, 24-Feb-2018 6:55pm CST
Light drizzle, Overcast
Light drizzle, Overcast
 Wind from SE
Wind: SE 20 mph , 31 km/h, Gust: 28 mph , 44 km/h
Temperature: 46°F , 8°C
Wind Chill: 38°F , 3°C
Dew Point: 45°F , 7°C
Humidity: 93%
Barometer: 29.64 inHg , 1003.7 hPa
Summary: Light Drizzle
Clouds: Overcast
Visibility: 10 miles , 16 km
Cloud details: Overcast 500 ft
2018/02/25 00:55 KC09 250055Z AUTO 13017G24KT 10SM -DZ OVC005 08/07 A2964 RMK AO2 T00780070

Metar display script from Saratoga-Weather.org